createdAt,value
2023-03-29T00:00:47.865Z,-0.86
2023-03-29T00:03:16.731Z,-0.87
2023-03-29T00:05:45.023Z,-0.94
2023-03-29T00:08:14.972Z,-0.90
2023-03-29T00:10:43.208Z,-0.92
2023-03-29T00:13:11.483Z,-0.90
2023-03-29T00:15:39.532Z,-0.90
2023-03-29T00:18:07.445Z,-0.90
2023-03-29T00:20:35.645Z,-0.91
2023-03-29T00:23:03.739Z,-0.99
2023-03-29T00:25:31.639Z,-0.86
2023-03-29T00:27:59.490Z,-0.91
2023-03-29T00:30:27.496Z,-0.90
2023-03-29T00:32:55.452Z,-0.95
2023-03-29T00:35:23.601Z,-0.81
2023-03-29T00:37:53.207Z,-0.80
2023-03-29T00:40:21.381Z,-0.84
2023-03-29T00:42:51.320Z,-0.82
2023-03-29T00:45:21.220Z,-0.81
2023-03-29T00:47:52.106Z,-0.88
2023-03-29T00:50:41.917Z,-0.89
2023-03-29T00:53:18.015Z,-0.89
2023-03-29T00:56:12.177Z,-0.89
2023-03-29T00:58:42.720Z,-0.96
2023-03-29T01:01:16.898Z,-0.92
2023-03-29T01:03:54.706Z,-0.93
2023-03-29T01:06:26.329Z,-0.94
2023-03-29T01:08:58.686Z,-0.98
2023-03-29T01:11:37.054Z,-0.88
2023-03-29T01:14:13.016Z,-1.00
2023-03-29T01:16:41.644Z,-0.93
2023-03-29T01:19:15.903Z,-0.91
2023-03-29T01:22:06.031Z,-0.90
2023-03-29T01:24:51.468Z,-0.91
2023-03-29T01:27:37.999Z,-0.92
2023-03-29T01:30:21.566Z,-1.04
2023-03-29T01:32:57.222Z,-1.00
2023-03-29T01:35:43.960Z,-1.08
2023-03-29T01:38:30.823Z,-1.04
2023-03-29T01:40:58.720Z,-1.07
2023-03-29T01:43:36.467Z,-1.07
2023-03-29T01:46:10.760Z,-1.08
2023-03-29T01:48:52.568Z,-1.06
2023-03-29T01:51:42.145Z,-1.11
2023-03-29T01:54:18.504Z,-1.09
2023-03-29T01:56:50.044Z,-1.11
2023-03-29T01:59:23.479Z,-1.14
2023-03-29T02:01:57.729Z,-1.21
2023-03-29T02:04:34.836Z,-1.18
2023-03-29T02:07:06.215Z,-1.18
2023-03-29T02:09:37.390Z,-1.18
2023-03-29T02:12:08.102Z,-1.17
2023-03-29T02:14:36.694Z,-1.18
2023-03-29T02:17:28.061Z,-1.17
2023-03-29T02:20:02.364Z,-1.17
2023-03-29T02:22:48.591Z,-1.13
2023-03-29T02:25:17.716Z,-1.13
2023-03-29T02:27:46.418Z,-1.23
2023-03-29T02:30:17.477Z,-1.18
2023-03-29T02:33:02.166Z,-1.17
2023-03-29T02:35:38.678Z,-1.16
2023-03-29T02:38:11.600Z,-1.18
2023-03-29T02:40:42.912Z,-1.22
2023-03-29T02:43:14.276Z,-1.27
2023-03-29T02:45:44.501Z,-1.12
2023-03-29T02:48:17.644Z,-1.09
2023-03-29T02:50:50.166Z,-1.07
2023-03-29T02:56:27.925Z,-1.18
2023-03-29T02:58:56.220Z,-1.13
2023-03-29T03:01:24.732Z,-1.28
2023-03-29T03:03:52.973Z,-1.11
2023-03-29T03:06:21.765Z,-1.04
2023-03-29T03:08:51.273Z,-1.04
2023-03-29T03:11:19.149Z,-1.01
2023-03-29T03:13:47.556Z,-1.03
2023-03-29T03:16:16.085Z,-1.03
2023-03-29T03:18:46.099Z,-0.98
2023-03-29T03:21:14.058Z,-0.99
2023-03-29T03:23:42.295Z,-0.99
2023-03-29T03:26:10.920Z,-0.94
2023-03-29T03:28:40.305Z,-0.94
2023-03-29T03:31:14.475Z,-0.94
2023-03-29T03:34:05.370Z,-0.94
2023-03-29T03:36:56.156Z,-0.94
2023-03-29T03:39:24.202Z,-0.93
2023-03-29T03:41:52.672Z,-1.06
2023-03-29T03:44:20.836Z,-1.13
2023-03-29T03:46:57.996Z,-1.26
2023-03-29T03:49:25.890Z,-1.13
2023-03-29T03:51:54.345Z,-1.17
2023-03-29T03:54:22.476Z,-1.27
2023-03-29T03:57:16.785Z,-1.21
2023-03-29T03:59:50.236Z,-1.21
2023-03-29T04:02:27.053Z,-1.23
2023-03-29T04:04:55.355Z,-1.29
2023-03-29T04:07:30.536Z,-1.30
2023-03-29T04:10:21.705Z,-1.25
2023-03-29T04:13:04.908Z,-1.27
2023-03-29T04:15:39.457Z,-1.20
2023-03-29T04:18:10.697Z,-1.30
2023-03-29T04:20:46.284Z,-1.30
2023-03-29T04:23:16.718Z,-1.30
2023-03-29T04:25:46.091Z,-1.28
2023-03-29T04:28:33.630Z,-1.25
2023-03-29T04:31:14.691Z,-1.25
2023-03-29T04:33:52.261Z,-1.31
2023-03-29T04:36:20.966Z,-1.27
2023-03-29T04:38:49.043Z,-1.27
2023-03-29T04:41:17.555Z,-1.33
2023-03-29T04:44:07.074Z,-1.18
2023-03-29T04:46:35.945Z,-1.18
2023-03-29T04:49:22.482Z,-1.23
2023-03-29T04:51:54.641Z,-1.16
2023-03-29T04:54:27.568Z,-1.13
2023-03-29T04:57:18.524Z,-1.04
2023-03-29T04:59:56.774Z,-1.03
2023-03-29T05:02:46.385Z,-0.95
2023-03-29T05:05:16.233Z,-0.99
2023-03-29T05:07:48.191Z,-0.98
2023-03-29T05:10:20.465Z,-0.93
2023-03-29T05:12:54.283Z,-0.82
2023-03-29T05:15:23.992Z,-0.74
2023-03-29T05:17:52.139Z,-0.78
2023-03-29T05:20:20.042Z,-0.72
2023-03-29T05:22:49.065Z,-0.71
2023-03-29T05:25:37.385Z,-0.73
2023-03-29T05:28:05.687Z,-0.72
2023-03-29T05:30:34.031Z,-0.69
2023-03-29T05:33:10.761Z,-0.45
2023-03-29T05:35:39.964Z,-0.30
2023-03-29T05:38:09.575Z,-0.18
2023-03-29T05:40:37.994Z,-0.03
2023-03-29T05:43:31.905Z,0.20
2023-03-29T05:46:00.518Z,0.05
2023-03-29T05:48:30.159Z,-0.13
2023-03-29T05:50:58.124Z,-0.18
2023-03-29T05:53:29.996Z,-0.32
2023-03-29T05:55:58.059Z,-0.57
2023-03-29T05:58:28.855Z,-0.51
2023-03-29T06:00:57.427Z,-0.56
2023-03-29T06:03:49.746Z,-0.47
2023-03-29T06:06:21.618Z,-0.18
2023-03-29T06:08:50.872Z,0.13
2023-03-29T06:11:24.681Z,0.38
2023-03-29T06:14:23.534Z,0.28
2023-03-29T06:17:01.977Z,0.70
2023-03-29T06:19:30.060Z,0.71
2023-03-29T06:21:58.179Z,0.96
2023-03-29T06:24:29.342Z,1.07
2023-03-29T06:27:03.501Z,1.07
2023-03-29T06:29:32.176Z,1.20
2023-03-29T06:32:00.463Z,1.60
2023-03-29T06:34:49.218Z,1.70
2023-03-29T06:37:26.744Z,1.84
2023-03-29T06:40:07.697Z,2.54
2023-03-29T06:42:42.589Z,3.26
2023-03-29T06:45:31.762Z,4.36
2023-03-29T06:48:03.362Z,5.24
2023-03-29T06:50:32.795Z,5.98
2023-03-29T06:53:09.319Z,5.26
2023-03-29T06:55:37.563Z,6.18
2023-03-29T06:58:35.906Z,5.38
2023-03-29T07:01:11.822Z,5.20
2023-03-29T07:03:51.255Z,5.31
2023-03-29T07:06:25.081Z,4.37
2023-03-29T07:08:53.884Z,3.65
2023-03-29T07:11:46.955Z,4.15
2023-03-29T07:14:27.951Z,3.66
2023-03-29T07:16:58.670Z,4.14
2023-03-29T07:19:33.478Z,7.12
2023-03-29T07:22:21.900Z,7.92
2023-03-29T07:24:55.509Z,9.69
2023-03-29T07:27:23.984Z,11.93
2023-03-29T07:29:52.360Z,10.52
2023-03-29T07:32:20.878Z,10.51
2023-03-29T07:35:13.450Z,9.89
2023-03-29T07:37:43.076Z,10.49
2023-03-29T07:40:19.181Z,10.66
2023-03-29T07:43:13.507Z,11.67
2023-03-29T07:45:42.563Z,13.25
2023-03-29T07:48:13.453Z,15.47
2023-03-29T07:50:54.204Z,15.46
2023-03-29T07:53:29.809Z,15.69
2023-03-29T07:56:00.475Z,14.98
2023-03-29T07:58:52.036Z,14.63
2023-03-29T08:01:22.076Z,14.59
2023-03-29T08:04:10.546Z,15.21
2023-03-29T08:07:01.492Z,17.07
2023-03-29T08:09:48.127Z,15.77
2023-03-29T08:12:17.412Z,16.27
2023-03-29T08:14:46.383Z,14.93
2023-03-29T08:17:19.759Z,14.98
2023-03-29T08:19:50.988Z,16.03
2023-03-29T08:22:22.925Z,16.71
2023-03-29T08:25:20.368Z,16.87
2023-03-29T08:27:52.374Z,15.85
2023-03-29T08:30:33.441Z,15.55
2023-03-29T08:33:03.421Z,15.15
2023-03-29T08:35:31.816Z,15.35
2023-03-29T08:38:27.377Z,15.08
2023-03-29T08:40:57.078Z,15.83
2023-03-29T08:43:58.273Z,15.84
2023-03-29T08:47:00.897Z,15.24
2023-03-29T08:49:40.140Z,15.31
2023-03-29T08:52:27.419Z,15.89
2023-03-29T08:54:57.546Z,16.52
2023-03-29T08:57:47.767Z,16.19
2023-03-29T09:00:37.548Z,15.02
2023-03-29T09:03:29.352Z,15.58
2023-03-29T09:06:11.096Z,14.00
2023-03-29T09:08:45.940Z,14.09
2023-03-29T09:11:50.484Z,13.98
2023-03-29T09:14:37.040Z,14.02
2023-03-29T09:17:20.559Z,12.78
2023-03-29T09:19:54.692Z,12.28
2023-03-29T09:22:35.010Z,13.02
2023-03-29T09:25:27.691Z,13.28
2023-03-29T09:28:02.584Z,12.73
2023-03-29T09:31:07.654Z,14.21
2023-03-29T09:33:59.954Z,14.13
2023-03-29T09:36:54.946Z,14.04
2023-03-29T09:39:23.749Z,13.37
2023-03-29T09:42:09.381Z,13.56
2023-03-29T09:44:41.701Z,15.05
2023-03-29T09:47:32.296Z,13.84
2023-03-29T09:50:19.849Z,14.47
2023-03-29T09:52:55.872Z,13.97
2023-03-29T09:55:31.521Z,13.31
2023-03-29T09:58:21.389Z,11.71
2023-03-29T10:00:53.327Z,11.59
2023-03-29T10:03:29.890Z,10.81
2023-03-29T10:06:17.500Z,10.87
2023-03-29T10:09:01.423Z,11.63
2023-03-29T10:11:54.063Z,11.99
2023-03-29T10:14:36.377Z,12.49
2023-03-29T10:17:18.990Z,11.86
2023-03-29T10:19:52.738Z,11.59
2023-03-29T10:22:25.830Z,11.28
2023-03-29T10:24:57.397Z,12.02
2023-03-29T10:27:28.488Z,11.88
2023-03-29T10:30:00.041Z,12.10
2023-03-29T10:32:38.136Z,11.59
2023-03-29T10:35:11.055Z,11.52
2023-03-29T10:37:49.086Z,12.08
2023-03-29T10:40:26.134Z,12.52
2023-03-29T10:42:59.680Z,12.72
2023-03-29T10:45:31.935Z,12.39
2023-03-29T10:48:00.167Z,12.78
2023-03-29T10:50:34.592Z,13.14
2023-03-29T10:53:23.755Z,13.51
2023-03-29T10:56:00.898Z,15.03
2023-03-29T10:58:38.060Z,14.23
2023-03-29T11:01:14.915Z,13.59
2023-03-29T11:04:16.243Z,12.42
2023-03-29T11:06:57.387Z,11.27
2023-03-29T11:09:41.671Z,10.52
2023-03-29T11:12:16.446Z,10.38
2023-03-29T11:15:10.403Z,10.29
2023-03-29T11:17:52.901Z,10.08
2023-03-29T11:20:44.417Z,9.87
2023-03-29T11:23:35.896Z,10.75
2023-03-29T11:26:10.091Z,11.10
2023-03-29T11:29:15.023Z,10.54
2023-03-29T11:31:55.265Z,10.35
2023-03-29T11:34:54.306Z,10.47
2023-03-29T11:37:48.939Z,10.05
2023-03-29T11:40:36.395Z,9.56
2023-03-29T11:43:12.663Z,9.47
2023-03-29T11:45:50.778Z,9.52
2023-03-29T11:48:26.321Z,9.31
2023-03-29T11:51:26.458Z,9.07
2023-03-29T11:54:13.174Z,9.45
2023-03-29T11:56:47.913Z,10.39
2023-03-29T11:59:29.085Z,11.47
2023-03-29T12:02:09.346Z,11.93
2023-03-29T12:04:51.159Z,11.87
2023-03-29T12:08:04.413Z,12.74
2023-03-29T12:11:03.046Z,12.58
2023-03-29T12:13:40.770Z,12.54
2023-03-29T12:16:47.004Z,12.39
2023-03-29T12:19:40.950Z,12.51
2023-03-29T12:22:11.305Z,12.36
2023-03-29T12:24:47.245Z,12.07
2023-03-29T12:27:32.940Z,11.57
2023-03-29T12:30:27.522Z,10.90
2023-03-29T12:33:15.882Z,10.72
2023-03-29T12:36:14.242Z,11.03
2023-03-29T12:38:54.693Z,10.99
2023-03-29T12:41:45.077Z,11.03
2023-03-29T12:44:18.015Z,10.89
2023-03-29T12:47:01.702Z,10.70
2023-03-29T12:49:39.392Z,10.78
2023-03-29T12:52:27.321Z,10.49
2023-03-29T12:54:59.015Z,10.44
2023-03-29T12:57:40.077Z,10.37
2023-03-29T13:00:33.055Z,9.99
2023-03-29T13:03:20.517Z,9.59
2023-03-29T13:05:59.266Z,9.46
2023-03-29T13:08:36.084Z,9.12
2023-03-29T13:11:06.766Z,8.77
2023-03-29T13:13:38.256Z,8.68
2023-03-29T13:16:15.199Z,8.92
2023-03-29T13:19:32.542Z,8.89
2023-03-29T13:22:26.117Z,8.59
2023-03-29T13:25:11.665Z,8.60
2023-03-29T13:28:04.696Z,8.54
2023-03-29T13:30:57.573Z,8.67
2023-03-29T13:33:56.160Z,8.42
2023-03-29T13:36:47.524Z,8.66
2023-03-29T13:39:30.090Z,8.51
2023-03-29T13:42:20.067Z,8.65
2023-03-29T13:44:52.326Z,8.73
2023-03-29T13:47:27.252Z,8.62
2023-03-29T13:49:59.560Z,8.61
2023-03-29T13:52:59.001Z,8.74
2023-03-29T13:55:33.671Z,8.53
2023-03-29T13:58:15.137Z,8.49
2023-03-29T14:00:54.440Z,8.67
2023-03-29T14:03:30.070Z,8.78
2023-03-29T14:06:01.918Z,8.64
2023-03-29T14:08:42.144Z,8.62
2023-03-29T14:11:28.600Z,8.33
2023-03-29T14:13:59.150Z,8.34
2023-03-29T14:16:30.706Z,8.45
2023-03-29T14:19:22.282Z,8.29
2023-03-29T14:21:53.776Z,8.39
2023-03-29T14:24:29.868Z,8.54
2023-03-29T14:26:58.303Z,8.55
2023-03-29T14:29:34.264Z,8.23
2023-03-29T14:32:16.570Z,8.17
2023-03-29T14:34:48.809Z,8.07
2023-03-29T14:37:22.946Z,8.16
2023-03-29T14:39:51.375Z,8.14
2023-03-29T14:42:26.992Z,8.35
2023-03-29T14:45:04.408Z,8.47
2023-03-29T14:47:34.251Z,8.39
2023-03-29T14:50:04.266Z,8.48
2023-03-29T14:52:32.796Z,8.54
2023-03-29T14:55:02.816Z,8.40
2023-03-29T14:57:37.045Z,8.37
2023-03-29T15:00:18.203Z,8.43
2023-03-29T15:02:59.078Z,8.45
2023-03-29T15:05:36.318Z,8.58
2023-03-29T15:08:07.961Z,8.32
2023-03-29T15:10:38.246Z,8.36
2023-03-29T15:13:08.554Z,8.33
2023-03-29T15:15:39.197Z,8.37
2023-03-29T15:18:16.692Z,8.48
2023-03-29T15:20:46.056Z,8.33
2023-03-29T15:23:17.300Z,8.41
2023-03-29T15:25:56.590Z,8.34
2023-03-29T15:28:31.412Z,7.89
2023-03-29T15:31:10.743Z,8.01
2023-03-29T15:33:42.056Z,7.94
2023-03-29T15:36:13.201Z,8.08
2023-03-29T15:38:45.112Z,7.83
2023-03-29T15:41:15.765Z,7.76
2023-03-29T15:43:44.362Z,7.54
2023-03-29T15:46:14.386Z,7.46
2023-03-29T15:48:43.492Z,7.33
2023-03-29T15:51:12.829Z,7.08
2023-03-29T15:53:41.745Z,6.97
2023-03-29T15:56:16.160Z,6.81
2023-03-29T15:58:45.450Z,6.53
2023-03-29T16:01:37.004Z,6.55
2023-03-29T16:04:08.209Z,6.46
2023-03-29T16:06:37.005Z,6.40
2023-03-29T16:09:07.402Z,6.41
2023-03-29T16:11:36.002Z,6.37
2023-03-29T16:14:15.258Z,6.41
2023-03-29T16:16:43.851Z,6.32
2023-03-29T16:19:12.450Z,6.19
2023-03-29T16:21:40.946Z,6.11
2023-03-29T16:24:21.536Z,6.07
2023-03-29T16:26:52.180Z,5.99
2023-03-29T16:29:21.815Z,5.95
2023-03-29T16:31:50.968Z,5.82
2023-03-29T16:34:20.191Z,5.71
2023-03-29T16:36:49.341Z,5.76
2023-03-29T16:39:18.485Z,5.65
2023-03-29T16:41:48.944Z,5.63
2023-03-29T16:44:23.748Z,5.58
2023-03-29T16:46:58.459Z,5.61
2023-03-29T16:49:26.849Z,5.61
2023-03-29T16:51:55.340Z,5.69
2023-03-29T16:54:26.294Z,5.69
2023-03-29T16:56:54.814Z,5.75
2023-03-29T16:59:23.425Z,5.67
2023-03-29T17:01:52.028Z,5.77
2023-03-29T17:04:20.721Z,5.83
2023-03-29T17:06:49.011Z,5.79
2023-03-29T17:09:17.991Z,5.81
2023-03-29T17:11:46.607Z,5.79
2023-03-29T17:14:16.451Z,5.72
2023-03-29T17:16:45.327Z,5.78
2023-03-29T17:19:13.913Z,5.81
2023-03-29T17:21:42.597Z,5.90
2023-03-29T17:24:11.268Z,5.95
2023-03-29T17:26:40.413Z,5.91
2023-03-29T17:29:08.720Z,5.97
2023-03-29T17:31:38.525Z,6.08
2023-03-29T17:34:06.987Z,5.96
2023-03-29T17:36:37.793Z,5.90
2023-03-29T17:39:06.668Z,6.09
2023-03-29T17:41:35.425Z,6.15
2023-03-29T17:44:03.954Z,6.09
2023-03-29T17:46:32.664Z,5.84
2023-03-29T17:49:01.238Z,5.73
2023-03-29T17:51:29.861Z,5.77
2023-03-29T17:53:58.626Z,5.73
2023-03-29T17:56:27.052Z,5.58
2023-03-29T17:58:55.789Z,5.66
2023-03-29T18:01:24.345Z,5.62
2023-03-29T18:03:52.823Z,5.63
2023-03-29T18:06:21.703Z,5.67
2023-03-29T18:08:50.305Z,5.63
2023-03-29T18:11:23.066Z,5.56
2023-03-29T18:13:52.711Z,5.59
2023-03-29T18:16:22.609Z,5.63
2023-03-29T18:18:52.377Z,5.72
2023-03-29T18:21:20.524Z,5.76
2023-03-29T18:23:50.151Z,5.79
2023-03-29T18:26:18.502Z,5.71
2023-03-29T18:28:47.513Z,5.78
2023-03-29T18:31:16.704Z,5.75
2023-03-29T18:33:45.426Z,5.79
2023-03-29T18:36:14.272Z,5.82
2023-03-29T18:38:44.080Z,5.79
2023-03-29T18:41:14.632Z,5.69
2023-03-29T18:43:44.604Z,5.71
2023-03-29T18:46:13.425Z,5.73
2023-03-29T18:48:42.306Z,5.68
2023-03-29T18:51:11.429Z,5.58
2023-03-29T18:53:41.995Z,5.47
2023-03-29T18:56:11.584Z,5.46
2023-03-29T18:58:40.123Z,5.44
2023-03-29T19:01:09.941Z,5.34
2023-03-29T19:03:38.865Z,5.32
2023-03-29T19:06:08.456Z,5.22
2023-03-29T19:08:41.642Z,5.19
2023-03-29T19:11:14.487Z,5.16
2023-03-29T19:13:43.281Z,4.69
2023-03-29T19:16:12.527Z,4.76
2023-03-29T19:18:41.238Z,4.90
2023-03-29T19:21:09.996Z,4.59
2023-03-29T19:23:39.443Z,4.60
2023-03-29T19:26:09.080Z,4.58
2023-03-29T19:28:37.728Z,4.53
2023-03-29T19:31:07.575Z,4.55
2023-03-29T19:33:35.815Z,4.40
2023-03-29T19:36:04.332Z,4.44
2023-03-29T19:38:32.695Z,4.40
2023-03-29T19:41:00.828Z,4.49
2023-03-29T19:43:29.396Z,4.38
2023-03-29T19:46:05.183Z,4.33
2023-03-29T19:48:33.670Z,4.30
2023-03-29T19:55:33.541Z,4.38
2023-03-29T19:58:01.982Z,4.36
2023-03-29T20:00:32.168Z,4.38
2023-03-29T20:03:01.589Z,4.36
2023-03-29T20:05:30.238Z,4.33
2023-03-29T20:07:58.603Z,4.47
2023-03-29T20:10:27.125Z,4.48
2023-03-29T20:12:57.203Z,4.61
2023-03-29T20:15:26.357Z,4.55
2023-03-29T20:17:59.444Z,4.66
2023-03-29T20:20:28.732Z,4.65
2023-03-29T20:23:05.168Z,4.72
2023-03-29T20:25:36.511Z,4.74
2023-03-29T20:28:05.001Z,4.65
2023-03-29T20:30:33.285Z,4.77
2023-03-29T20:33:01.582Z,4.77
2023-03-29T20:35:29.665Z,4.82
2023-03-29T20:37:58.050Z,4.82
2023-03-29T20:40:26.240Z,4.81
2023-03-29T20:42:54.645Z,4.86
2023-03-29T20:45:23.126Z,4.90
2023-03-29T20:47:57.937Z,4.84
2023-03-29T20:50:26.801Z,4.89
2023-03-29T20:52:55.982Z,4.86
2023-03-29T20:55:24.261Z,4.93
2023-03-29T20:57:54.519Z,4.96
2023-03-29T21:00:22.759Z,4.98
2023-03-29T21:02:52.540Z,5.09
2023-03-29T21:05:20.936Z,5.16
2023-03-29T21:07:48.918Z,5.21
2023-03-29T21:10:17.550Z,5.14
2023-03-29T21:12:45.544Z,5.19
2023-03-29T21:15:18.088Z,5.09
2023-03-29T21:17:47.745Z,5.13
2023-03-29T21:20:16.454Z,5.20
2023-03-29T21:22:47.417Z,5.15
2023-03-29T21:25:16.123Z,5.14
2023-03-29T21:27:44.350Z,5.08
2023-03-29T21:30:12.787Z,5.09
2023-03-29T21:32:41.373Z,5.01
2023-03-29T21:35:10.740Z,5.15
2023-03-29T21:37:38.894Z,5.16
2023-03-29T21:40:08.890Z,5.16
2023-03-29T21:42:37.223Z,5.11
2023-03-29T21:45:06.000Z,5.17
2023-03-29T21:47:34.431Z,5.18
2023-03-29T21:50:02.435Z,5.16
2023-03-29T21:52:30.596Z,5.12
2023-03-29T21:54:58.548Z,5.23
2023-03-29T21:57:26.841Z,5.26
2023-03-29T21:59:54.809Z,5.23
2023-03-29T22:02:22.953Z,5.32
2023-03-29T22:04:50.902Z,5.31
2023-03-29T22:07:22.953Z,5.32
2023-03-29T22:09:50.998Z,5.34
2023-03-29T22:12:19.106Z,5.34
2023-03-29T22:14:47.306Z,5.38
2023-03-29T22:17:16.210Z,5.29
2023-03-29T22:19:44.545Z,5.32
2023-03-29T22:22:14.650Z,5.39
2023-03-29T22:24:45.226Z,5.30
2023-03-29T22:27:13.341Z,5.40
2023-03-29T22:29:41.186Z,5.40
2023-03-29T22:32:09.396Z,5.45
2023-03-29T22:34:37.405Z,5.46
2023-03-29T22:37:05.554Z,5.46
2023-03-29T22:39:37.039Z,5.49
2023-03-29T22:42:05.036Z,5.51
2023-03-29T22:44:34.093Z,5.46
2023-03-29T22:47:02.038Z,5.49
2023-03-29T22:49:30.139Z,5.59
2023-03-29T22:51:58.100Z,5.54
2023-03-29T22:54:26.222Z,5.57
2023-03-29T22:56:54.165Z,5.69
2023-03-29T22:59:22.219Z,5.68
2023-03-29T23:01:50.296Z,5.67
2023-03-29T23:04:18.387Z,5.72
2023-03-29T23:06:49.509Z,5.78
2023-03-29T23:09:17.481Z,5.76
2023-03-29T23:11:46.168Z,5.66
2023-03-29T23:14:15.116Z,5.62
2023-03-29T23:16:43.083Z,5.64
2023-03-29T23:19:11.253Z,5.66
2023-03-29T23:21:39.232Z,5.53
2023-03-29T23:24:07.463Z,5.61
2023-03-29T23:26:35.976Z,5.53
2023-03-29T23:29:04.721Z,5.45
2023-03-29T23:31:33.933Z,5.50
2023-03-29T23:34:03.440Z,5.50
2023-03-29T23:36:31.783Z,5.51
2023-03-29T23:38:59.841Z,5.45
2023-03-29T23:41:28.448Z,5.36
2023-03-29T23:43:58.073Z,5.38
2023-03-29T23:46:26.280Z,5.39
2023-03-29T23:48:54.837Z,5.37
2023-03-29T23:51:23.486Z,5.39
2023-03-29T23:53:52.019Z,5.42
2023-03-29T23:56:21.592Z,5.40
2023-03-29T23:58:49.985Z,5.37
